sensor_id;sensor_type;location;lat;lon;timestamp;temperature;humidity
77829;DHT22;67019;51.034;3.728;2023-02-28T00:01:29;2.30;76.30
77829;DHT22;67019;51.034;3.728;2023-02-28T00:03:56;2.20;75.90
77829;DHT22;67019;51.034;3.728;2023-02-28T00:06:24;2.10;77.40
77829;DHT22;67019;51.034;3.728;2023-02-28T00:08:52;2.00;77.10
77829;DHT22;67019;51.034;3.728;2023-02-28T00:11:21;1.90;78.50
77829;DHT22;67019;51.034;3.728;2023-02-28T00:13:50;1.90;78.30
77829;DHT22;67019;51.034;3.728;2023-02-28T00:16:21;1.90;77.30
77829;DHT22;67019;51.034;3.728;2023-02-28T00:18:49;1.90;78.30
77829;DHT22;67019;51.034;3.728;2023-02-28T00:21:17;1.90;77.50
77829;DHT22;67019;51.034;3.728;2023-02-28T00:23:46;1.90;77.60
77829;DHT22;67019;51.034;3.728;2023-02-28T00:26:14;1.80;79.20
77829;DHT22;67019;51.034;3.728;2023-02-28T00:28:42;2.00;78.90
77829;DHT22;67019;51.034;3.728;2023-02-28T00:31:11;1.90;78.90
77829;DHT22;67019;51.034;3.728;2023-02-28T00:33:39;2.00;77.70
77829;DHT22;67019;51.034;3.728;2023-02-28T00:36:09;2.00;78.00
77829;DHT22;67019;51.034;3.728;2023-02-28T00:38:38;2.20;77.80
77829;DHT22;67019;51.034;3.728;2023-02-28T00:41:06;2.10;77.40
77829;DHT22;67019;51.034;3.728;2023-02-28T00:43:36;2.00;77.60
77829;DHT22;67019;51.034;3.728;2023-02-28T00:46:04;1.90;79.00
77829;DHT22;67019;51.034;3.728;2023-02-28T00:48:34;1.80;78.80
77829;DHT22;67019;51.034;3.728;2023-02-28T00:51:03;2.00;78.30
77829;DHT22;67019;51.034;3.728;2023-02-28T00:53:34;1.90;78.20
77829;DHT22;67019;51.034;3.728;2023-02-28T00:56:05;1.90;78.70
77829;DHT22;67019;51.034;3.728;2023-02-28T00:58:33;1.90;78.60
77829;DHT22;67019;51.034;3.728;2023-02-28T01:01:01;2.00;79.20
77829;DHT22;67019;51.034;3.728;2023-02-28T01:03:29;1.90;80.20
77829;DHT22;67019;51.034;3.728;2023-02-28T01:05:56;1.90;79.70
77829;DHT22;67019;51.034;3.728;2023-02-28T01:08:24;2.00;78.60
77829;DHT22;67019;51.034;3.728;2023-02-28T01:10:52;1.90;79.20
77829;DHT22;67019;51.034;3.728;2023-02-28T01:13:20;1.80;80.50
77829;DHT22;67019;51.034;3.728;2023-02-28T01:15:51;1.90;81.00
77829;DHT22;67019;51.034;3.728;2023-02-28T01:18:20;2.00;79.70
77829;DHT22;67019;51.034;3.728;2023-02-28T01:20:49;2.00;78.90
77829;DHT22;67019;51.034;3.728;2023-02-28T01:23:20;1.90;80.50
77829;DHT22;67019;51.034;3.728;2023-02-28T01:25:51;1.90;81.10
77829;DHT22;67019;51.034;3.728;2023-02-28T01:28:19;1.90;80.50
77829;DHT22;67019;51.034;3.728;2023-02-28T01:30:50;1.90;81.00
77829;DHT22;67019;51.034;3.728;2023-02-28T01:33:18;1.90;80.10
77829;DHT22;67019;51.034;3.728;2023-02-28T01:35:45;2.00;79.80
77829;DHT22;67019;51.034;3.728;2023-02-28T01:38:13;2.00;80.80
77829;DHT22;67019;51.034;3.728;2023-02-28T01:40:42;1.80;80.90
77829;DHT22;67019;51.034;3.728;2023-02-28T01:43:58;1.90;80.60
77829;DHT22;67019;51.034;3.728;2023-02-28T01:45:40;1.80;81.50
77829;DHT22;67019;51.034;3.728;2023-02-28T01:48:08;1.80;82.20
77829;DHT22;67019;51.034;3.728;2023-02-28T01:50:39;1.80;82.20
77829;DHT22;67019;51.034;3.728;2023-02-28T01:53:11;1.70;83.30
77829;DHT22;67019;51.034;3.728;2023-02-28T01:55:41;1.80;82.20
77829;DHT22;67019;51.034;3.728;2023-02-28T01:58:10;1.70;82.00
77829;DHT22;67019;51.034;3.728;2023-02-28T02:00:38;1.70;83.30
77829;DHT22;67019;51.034;3.728;2023-02-28T02:03:11;1.80;83.80
77829;DHT22;67019;51.034;3.728;2023-02-28T02:05:39;1.70;82.60
77829;DHT22;67019;51.034;3.728;2023-02-28T02:08:12;1.60;84.10
77829;DHT22;67019;51.034;3.728;2023-02-28T02:10:50;1.60;90.20
77829;DHT22;67019;51.034;3.728;2023-02-28T02:24:41;1.70;84.10
77829;DHT22;67019;51.034;3.728;2023-02-28T02:30:00;1.60;85.00
77829;DHT22;67019;51.034;3.728;2023-02-28T02:35:27;1.60;84.60
77829;DHT22;67019;51.034;3.728;2023-02-28T02:40:27;1.80;84.40
77829;DHT22;67019;51.034;3.728;2023-02-28T02:42:59;1.50;84.30
77829;DHT22;67019;51.034;3.728;2023-02-28T02:45:25;1.40;84.90
77829;DHT22;67019;51.034;3.728;2023-02-28T02:47:56;1.40;85.30
77829;DHT22;67019;51.034;3.728;2023-02-28T02:50:35;1.20;85.80
77829;DHT22;67019;51.034;3.728;2023-02-28T02:53:02;1.20;86.40
77829;DHT22;67019;51.034;3.728;2023-02-28T02:55:33;1.30;86.60
77829;DHT22;67019;51.034;3.728;2023-02-28T02:58:04;1.50;86.00
77829;DHT22;67019;51.034;3.728;2023-02-28T03:00:37;1.30;85.60
77829;DHT22;67019;51.034;3.728;2023-02-28T03:03:07;-0.10;85.70
77829;DHT22;67019;51.034;3.728;2023-02-28T03:05:47;1.20;88.70
77829;DHT22;67019;51.034;3.728;2023-02-28T03:08:15;1.20;86.80
77829;DHT22;67019;51.034;3.728;2023-02-28T03:10:46;1.20;87.50
77829;DHT22;67019;51.034;3.728;2023-02-28T03:13:37;1.20;86.30
77829;DHT22;67019;51.034;3.728;2023-02-28T03:16:32;1.20;86.10
77829;DHT22;67019;51.034;3.728;2023-02-28T03:27:07;1.20;86.50
77829;DHT22;67019;51.034;3.728;2023-02-28T03:29:35;1.30;87.20
77829;DHT22;67019;51.034;3.728;2023-02-28T03:32:06;1.20;86.60
77829;DHT22;67019;51.034;3.728;2023-02-28T03:34:37;1.30;85.70
77829;DHT22;67019;51.034;3.728;2023-02-28T03:37:05;1.30;85.70
77829;DHT22;67019;51.034;3.728;2023-02-28T03:39:45;1.60;84.80
77829;DHT22;67019;51.034;3.728;2023-02-28T03:42:23;1.40;84.30
77829;DHT22;67019;51.034;3.728;2023-02-28T03:45:00;1.50;84.30
77829;DHT22;67019;51.034;3.728;2023-02-28T03:50:39;1.50;85.30
77829;DHT22;67019;51.034;3.728;2023-02-28T03:53:12;1.60;84.30
77829;DHT22;67019;51.034;3.728;2023-02-28T03:56:03;1.70;83.70
77829;DHT22;67019;51.034;3.728;2023-02-28T03:58:39;1.80;83.20
77829;DHT22;67019;51.034;3.728;2023-02-28T04:01:12;1.80;84.10
77829;DHT22;67019;51.034;3.728;2023-02-28T04:03:41;1.90;83.20
77829;DHT22;67019;51.034;3.728;2023-02-28T04:06:15;2.00;83.00
77829;DHT22;67019;51.034;3.728;2023-02-28T04:08:43;1.70;82.80
77829;DHT22;67019;51.034;3.728;2023-02-28T04:11:23;1.70;83.90
77829;DHT22;67019;51.034;3.728;2023-02-28T04:13:51;1.80;83.60
77829;DHT22;67019;51.034;3.728;2023-02-28T04:16:18;2.10;82.80
77829;DHT22;67019;51.034;3.728;2023-02-28T04:18:46;2.20;82.50
77829;DHT22;67019;51.034;3.728;2023-02-28T04:21:15;2.20;80.70
77829;DHT22;67019;51.034;3.728;2023-02-28T04:23:44;2.00;82.80
77829;DHT22;67019;51.034;3.728;2023-02-28T04:26:12;1.90;82.90
77829;DHT22;67019;51.034;3.728;2023-02-28T04:28:40;1.90;85.00
77829;DHT22;67019;51.034;3.728;2023-02-28T04:31:09;2.30;82.10
77829;DHT22;67019;51.034;3.728;2023-02-28T04:33:37;2.00;82.60
77829;DHT22;67019;51.034;3.728;2023-02-28T04:36:07;1.90;83.50
77829;DHT22;67019;51.034;3.728;2023-02-28T04:38:38;2.40;82.90
77829;DHT22;67019;51.034;3.728;2023-02-28T04:41:06;2.70;80.30
77829;DHT22;67019;51.034;3.728;2023-02-28T04:43:34;2.70;80.70
77829;DHT22;67019;51.034;3.728;2023-02-28T04:46:03;2.70;80.20
77829;DHT22;67019;51.034;3.728;2023-02-28T04:48:34;2.70;80.20
77829;DHT22;67019;51.034;3.728;2023-02-28T04:51:05;2.60;80.90
77829;DHT22;67019;51.034;3.728;2023-02-28T04:53:32;2.50;80.30
77829;DHT22;67019;51.034;3.728;2023-02-28T04:56:00;2.50;80.30
77829;DHT22;67019;51.034;3.728;2023-02-28T04:58:28;2.70;80.30
77829;DHT22;67019;51.034;3.728;2023-02-28T05:01:01;2.70;79.60
77829;DHT22;67019;51.034;3.728;2023-02-28T05:03:31;2.80;80.00
77829;DHT22;67019;51.034;3.728;2023-02-28T05:05:59;2.70;80.90
77829;DHT22;67019;51.034;3.728;2023-02-28T05:08:26;2.60;80.50
77829;DHT22;67019;51.034;3.728;2023-02-28T05:10:56;2.70;80.70
77829;DHT22;67019;51.034;3.728;2023-02-28T05:13:23;2.80;80.00
77829;DHT22;67019;51.034;3.728;2023-02-28T05:15:51;2.70;80.60
77829;DHT22;67019;51.034;3.728;2023-02-28T05:18:19;2.60;80.70
77829;DHT22;67019;51.034;3.728;2023-02-28T05:20:46;2.60;80.40
77829;DHT22;67019;51.034;3.728;2023-02-28T05:23:14;2.80;79.50
77829;DHT22;67019;51.034;3.728;2023-02-28T05:25:43;2.70;80.10
77829;DHT22;67019;51.034;3.728;2023-02-28T05:28:11;2.60;80.70
77829;DHT22;67019;51.034;3.728;2023-02-28T05:30:39;2.70;81.20
77829;DHT22;67019;51.034;3.728;2023-02-28T05:33:06;2.90;80.10
77829;DHT22;67019;51.034;3.728;2023-02-28T05:35:37;2.80;79.30
77829;DHT22;67019;51.034;3.728;2023-02-28T05:38:03;2.90;80.10
77829;DHT22;67019;51.034;3.728;2023-02-28T05:40:31;3.00;79.90
77829;DHT22;67019;51.034;3.728;2023-02-28T05:42:59;2.80;79.60
77829;DHT22;67019;51.034;3.728;2023-02-28T05:45:27;2.80;79.80
77829;DHT22;67019;51.034;3.728;2023-02-28T05:47:55;2.80;80.40
77829;DHT22;67019;51.034;3.728;2023-02-28T05:50:23;2.80;80.10
77829;DHT22;67019;51.034;3.728;2023-02-28T05:52:51;2.70;82.00
77829;DHT22;67019;51.034;3.728;2023-02-28T05:55:19;2.80;80.70
77829;DHT22;67019;51.034;3.728;2023-02-28T05:57:46;3.00;80.60
77829;DHT22;67019;51.034;3.728;2023-02-28T06:00:14;2.90;79.30
77829;DHT22;67019;51.034;3.728;2023-02-28T06:02:44;2.90;80.50
77829;DHT22;67019;51.034;3.728;2023-02-28T06:05:17;2.80;82.00
77829;DHT22;67019;51.034;3.728;2023-02-28T06:07:45;2.90;79.70
77829;DHT22;67019;51.034;3.728;2023-02-28T06:10:13;2.80;80.60
77829;DHT22;67019;51.034;3.728;2023-02-28T06:12:41;2.90;80.10
77829;DHT22;67019;51.034;3.728;2023-02-28T06:15:12;3.00;80.10
77829;DHT22;67019;51.034;3.728;2023-02-28T06:17:39;3.00;80.20
77829;DHT22;67019;51.034;3.728;2023-02-28T06:20:07;2.90;79.30
77829;DHT22;67019;51.034;3.728;2023-02-28T06:22:36;3.10;78.70
77829;DHT22;67019;51.034;3.728;2023-02-28T06:25:04;3.00;80.20
77829;DHT22;67019;51.034;3.728;2023-02-28T06:27:33;2.90;80.70
77829;DHT22;67019;51.034;3.728;2023-02-28T06:30:04;2.80;81.20
77829;DHT22;67019;51.034;3.728;2023-02-28T06:32:33;2.70;81.20
77829;DHT22;67019;51.034;3.728;2023-02-28T06:35:01;2.70;81.60
77829;DHT22;67019;51.034;3.728;2023-02-28T06:37:30;2.90;82.60
77829;DHT22;67019;51.034;3.728;2023-02-28T06:39:59;3.10;80.30
77829;DHT22;67019;51.034;3.728;2023-02-28T06:42:27;2.90;80.90
77829;DHT22;67019;51.034;3.728;2023-02-28T06:44:59;3.00;81.50
77829;DHT22;67019;51.034;3.728;2023-02-28T06:47:27;3.00;80.70
77829;DHT22;67019;51.034;3.728;2023-02-28T06:49:54;3.10;80.40
77829;DHT22;67019;51.034;3.728;2023-02-28T06:52:22;3.40;79.10
77829;DHT22;67019;51.034;3.728;2023-02-28T06:54:50;3.30;79.30
77829;DHT22;67019;51.034;3.728;2023-02-28T06:57:19;3.20;79.20
77829;DHT22;67019;51.034;3.728;2023-02-28T06:59:47;3.10;81.10
77829;DHT22;67019;51.034;3.728;2023-02-28T07:02:16;3.00;80.60
77829;DHT22;67019;51.034;3.728;2023-02-28T07:04:44;3.00;80.90
77829;DHT22;67019;51.034;3.728;2023-02-28T07:07:13;3.10;80.60
77829;DHT22;67019;51.034;3.728;2023-02-28T07:09:42;3.10;80.60
77829;DHT22;67019;51.034;3.728;2023-02-28T07:12:09;3.10;80.30
77829;DHT22;67019;51.034;3.728;2023-02-28T07:14:37;3.30;78.90
77829;DHT22;67019;51.034;3.728;2023-02-28T07:17:07;3.30;77.90
77829;DHT22;67019;51.034;3.728;2023-02-28T07:19:35;3.30;78.70
77829;DHT22;67019;51.034;3.728;2023-02-28T07:22:03;3.10;78.60
77829;DHT22;67019;51.034;3.728;2023-02-28T07:24:33;3.10;77.40
77829;DHT22;67019;51.034;3.728;2023-02-28T07:27:02;3.20;77.30
77829;DHT22;67019;51.034;3.728;2023-02-28T07:29:29;3.10;77.70
77829;DHT22;67019;51.034;3.728;2023-02-28T07:31:57;3.10;78.90
77829;DHT22;67019;51.034;3.728;2023-02-28T07:34:24;3.20;77.40
77829;DHT22;67019;51.034;3.728;2023-02-28T07:36:55;3.00;78.10
77829;DHT22;67019;51.034;3.728;2023-02-28T07:39:27;3.00;77.80
77829;DHT22;67019;51.034;3.728;2023-02-28T07:41:54;3.10;77.00
77829;DHT22;67019;51.034;3.728;2023-02-28T07:47:01;3.40;75.40
77829;DHT22;67019;51.034;3.728;2023-02-28T07:49:30;3.50;77.80
77829;DHT22;67019;51.034;3.728;2023-02-28T07:51:59;3.50;77.30
77829;DHT22;67019;51.034;3.728;2023-02-28T07:54:27;3.70;76.90
77829;DHT22;67019;51.034;3.728;2023-02-28T07:56:54;3.70;76.00
77829;DHT22;67019;51.034;3.728;2023-02-28T07:59:22;3.50;77.40
77829;DHT22;67019;51.034;3.728;2023-02-28T08:01:50;3.50;77.00
77829;DHT22;67019;51.034;3.728;2023-02-28T08:04:20;3.20;78.00
77829;DHT22;67019;51.034;3.728;2023-02-28T08:06:48;2.90;79.90
77829;DHT22;67019;51.034;3.728;2023-02-28T08:09:18;3.20;78.90
77829;DHT22;67019;51.034;3.728;2023-02-28T08:11:47;3.30;78.00
77829;DHT22;67019;51.034;3.728;2023-02-28T08:14:15;3.50;77.50
77829;DHT22;67019;51.034;3.728;2023-02-28T08:16:43;3.70;75.80
77829;DHT22;67019;51.034;3.728;2023-02-28T08:19:18;3.40;77.60
77829;DHT22;67019;51.034;3.728;2023-02-28T08:21:46;3.60;76.80
77829;DHT22;67019;51.034;3.728;2023-02-28T08:24:15;3.80;75.80
77829;DHT22;67019;51.034;3.728;2023-02-28T08:26:42;4.10;74.00
77829;DHT22;67019;51.034;3.728;2023-02-28T08:29:10;4.10;74.30
77829;DHT22;67019;51.034;3.728;2023-02-28T08:31:38;4.00;74.80
77829;DHT22;67019;51.034;3.728;2023-02-28T08:34:10;4.00;74.90
77829;DHT22;67019;51.034;3.728;2023-02-28T08:36:39;4.10;72.10
77829;DHT22;67019;51.034;3.728;2023-02-28T08:39:08;4.10;73.80
77829;DHT22;67019;51.034;3.728;2023-02-28T08:41:36;3.80;73.90
77829;DHT22;67019;51.034;3.728;2023-02-28T08:44:04;4.00;74.00
77829;DHT22;67019;51.034;3.728;2023-02-28T08:46:34;4.10;73.60
77829;DHT22;67019;51.034;3.728;2023-02-28T08:49:03;3.90;74.30
77829;DHT22;67019;51.034;3.728;2023-02-28T08:51:31;4.10;74.10
77829;DHT22;67019;51.034;3.728;2023-02-28T08:54:00;4.00;73.20
77829;DHT22;67019;51.034;3.728;2023-02-28T08:56:29;3.80;71.40
77829;DHT22;67019;51.034;3.728;2023-02-28T08:58:59;4.00;73.00
77829;DHT22;67019;51.034;3.728;2023-02-28T09:01:28;4.00;70.80
77829;DHT22;67019;51.034;3.728;2023-02-28T09:03:56;3.80;71.40
77829;DHT22;67019;51.034;3.728;2023-02-28T09:06:26;3.80;72.30
77829;DHT22;67019;51.034;3.728;2023-02-28T09:08:58;3.80;71.40
77829;DHT22;67019;51.034;3.728;2023-02-28T09:11:28;3.60;71.40
77829;DHT22;67019;51.034;3.728;2023-02-28T09:13:57;3.60;71.60
77829;DHT22;67019;51.034;3.728;2023-02-28T09:16:26;3.70;70.70
77829;DHT22;67019;51.034;3.728;2023-02-28T09:18:54;3.90;69.30
77829;DHT22;67019;51.034;3.728;2023-02-28T09:21:22;3.60;69.70
77829;DHT22;67019;51.034;3.728;2023-02-28T09:23:50;3.30;71.60
77829;DHT22;67019;51.034;3.728;2023-02-28T09:26:20;3.30;70.80
77829;DHT22;67019;51.034;3.728;2023-02-28T09:28:49;3.50;71.90
77829;DHT22;67019;51.034;3.728;2023-02-28T09:31:21;3.70;69.90
77829;DHT22;67019;51.034;3.728;2023-02-28T09:33:50;3.90;69.70
77829;DHT22;67019;51.034;3.728;2023-02-28T09:36:21;4.00;69.20
77829;DHT22;67019;51.034;3.728;2023-02-28T09:38:47;3.90;67.90
77829;DHT22;67019;51.034;3.728;2023-02-28T09:41:25;3.70;69.10
77829;DHT22;67019;51.034;3.728;2023-02-28T09:43:56;3.80;67.30
77829;DHT22;67019;51.034;3.728;2023-02-28T09:46:37;3.60;65.90
77829;DHT22;67019;51.034;3.728;2023-02-28T09:49:11;3.90;65.00
77829;DHT22;67019;51.034;3.728;2023-02-28T09:54:17;4.00;64.30
77829;DHT22;67019;51.034;3.728;2023-02-28T09:56:51;4.00;63.10
77829;DHT22;67019;51.034;3.728;2023-02-28T09:59:42;3.90;63.60
77829;DHT22;67019;51.034;3.728;2023-02-28T10:05:12;3.80;63.50
77829;DHT22;67019;51.034;3.728;2023-02-28T10:10:35;3.90;62.10
77829;DHT22;67019;51.034;3.728;2023-02-28T10:13:04;3.90;61.60
77829;DHT22;67019;51.034;3.728;2023-02-28T10:15:34;3.90;62.10
77829;DHT22;67019;51.034;3.728;2023-02-28T10:18:04;3.80;62.70
77829;DHT22;67019;51.034;3.728;2023-02-28T10:20:35;4.10;60.60
77829;DHT22;67019;51.034;3.728;2023-02-28T10:25:53;4.30;58.20
77829;DHT22;67019;51.034;3.728;2023-02-28T10:28:20;4.30;59.10
77829;DHT22;67019;51.034;3.728;2023-02-28T10:30:50;4.50;59.00
77829;DHT22;67019;51.034;3.728;2023-02-28T10:33:33;4.90;56.90
77829;DHT22;67019;51.034;3.728;2023-02-28T10:36:05;5.20;55.40
77829;DHT22;67019;51.034;3.728;2023-02-28T10:38:39;5.50;56.90
77829;DHT22;67019;51.034;3.728;2023-02-28T10:41:09;5.50;55.10
77829;DHT22;67019;51.034;3.728;2023-02-28T10:43:40;5.40;53.50
77829;DHT22;67019;51.034;3.728;2023-02-28T10:46:16;4.90;55.20
77829;DHT22;67019;51.034;3.728;2023-02-28T10:48:59;4.90;54.70
77829;DHT22;67019;51.034;3.728;2023-02-28T10:51:19;5.00;56.50
77829;DHT22;67019;51.034;3.728;2023-02-28T10:53:55;5.20;53.80
77829;DHT22;67019;51.034;3.728;2023-02-28T10:56:21;5.20;50.50
77829;DHT22;67019;51.034;3.728;2023-02-28T11:01:42;5.30;50.50
77829;DHT22;67019;51.034;3.728;2023-02-28T11:07:00;5.50;49.00
77829;DHT22;67019;51.034;3.728;2023-02-28T11:09:39;5.80;49.30
77829;DHT22;67019;51.034;3.728;2023-02-28T11:12:19;6.10;48.20
77829;DHT22;67019;51.034;3.728;2023-02-28T11:14:53;6.00;49.50
77829;DHT22;67019;51.034;3.728;2023-02-28T11:17:29;5.20;50.60
77829;DHT22;67019;51.034;3.728;2023-02-28T11:20:05;4.30;57.60
77829;DHT22;67019;51.034;3.728;2023-02-28T11:22:37;4.80;52.30
77829;DHT22;67019;51.034;3.728;2023-02-28T11:25:16;4.90;53.70
77829;DHT22;67019;51.034;3.728;2023-02-28T11:27:48;5.20;51.30
77829;DHT22;67019;51.034;3.728;2023-02-28T11:30:36;5.40;51.70
77829;DHT22;67019;51.034;3.728;2023-02-28T11:33:50;5.90;51.40
77829;DHT22;67019;51.034;3.728;2023-02-28T11:35:40;5.60;50.40
77829;DHT22;67019;51.034;3.728;2023-02-28T11:38:12;5.50;51.60
77829;DHT22;67019;51.034;3.728;2023-02-28T11:40:41;5.40;50.40
77829;DHT22;67019;51.034;3.728;2023-02-28T11:46:12;5.30;50.00
77829;DHT22;67019;51.034;3.728;2023-02-28T11:48:50;5.20;50.10
77829;DHT22;67019;51.034;3.728;2023-02-28T11:51:22;5.00;51.70
77829;DHT22;67019;51.034;3.728;2023-02-28T11:54:21;5.20;49.70
77829;DHT22;67019;51.034;3.728;2023-02-28T11:56:50;5.40;48.60
77829;DHT22;67019;51.034;3.728;2023-02-28T11:59:29;5.30;48.80
77829;DHT22;67019;51.034;3.728;2023-02-28T12:02:06;5.40;47.80
77829;DHT22;67019;51.034;3.728;2023-02-28T12:04:52;5.40;48.00
77829;DHT22;67019;51.034;3.728;2023-02-28T12:07:43;5.30;48.00
77829;DHT22;67019;51.034;3.728;2023-02-28T12:26:41;5.50;45.30
77829;DHT22;67019;51.034;3.728;2023-02-28T12:29:19;5.50;44.90
77829;DHT22;67019;51.034;3.728;2023-02-28T12:34:36;5.60;44.10
77829;DHT22;67019;51.034;3.728;2023-02-28T12:37:00;4.10;44.20
77829;DHT22;67019;51.034;3.728;2023-02-28T12:39:34;5.40;44.10
77829;DHT22;67019;51.034;3.728;2023-02-28T12:42:08;5.30;43.60
77829;DHT22;67019;51.034;3.728;2023-02-28T12:44:52;5.50;44.90
77829;DHT22;67019;51.034;3.728;2023-02-28T12:47:22;5.20;42.70
77829;DHT22;67019;51.034;3.728;2023-02-28T12:49:56;5.40;42.90
77829;DHT22;67019;51.034;3.728;2023-02-28T12:58:31;5.50;41.10
77829;DHT22;67019;51.034;3.728;2023-02-28T13:03:47;5.80;41.10
77829;DHT22;67019;51.034;3.728;2023-02-28T13:09:10;5.80;39.70
77829;DHT22;67019;51.034;3.728;2023-02-28T13:11:51;5.80;40.00
77829;DHT22;67019;51.034;3.728;2023-02-28T13:14:26;5.80;38.60
77829;DHT22;67019;51.034;3.728;2023-02-28T13:19:42;6.00;38.80
77829;DHT22;67019;51.034;3.728;2023-02-28T13:22:40;5.70;39.40
77829;DHT22;67019;51.034;3.728;2023-02-28T13:28:08;5.80;39.00
77829;DHT22;67019;51.034;3.728;2023-02-28T13:33:34;5.70;38.30
77829;DHT22;67019;51.034;3.728;2023-02-28T13:36:23;5.70;38.70
77829;DHT22;67019;51.034;3.728;2023-02-28T13:38:50;5.60;38.60
77829;DHT22;67019;51.034;3.728;2023-02-28T13:44:11;5.60;38.90
77829;DHT22;67019;51.034;3.728;2023-02-28T13:52:12;5.50;40.10
77829;DHT22;67019;51.034;3.728;2023-02-28T13:57:44;5.70;39.20
77829;DHT22;67019;51.034;3.728;2023-02-28T14:05:40;5.70;39.30
77829;DHT22;67019;51.034;3.728;2023-02-28T14:08:20;5.60;39.90
77829;DHT22;67019;51.034;3.728;2023-02-28T14:10:49;5.70;39.30
77829;DHT22;67019;51.034;3.728;2023-02-28T14:16:08;5.70;40.20
77829;DHT22;67019;51.034;3.728;2023-02-28T14:18:39;5.70;39.40
77829;DHT22;67019;51.034;3.728;2023-02-28T14:21:10;5.50;40.30
77829;DHT22;67019;51.034;3.728;2023-02-28T14:27:00;5.80;40.50
77829;DHT22;67019;51.034;3.728;2023-02-28T14:32:44;5.60;40.50
77829;DHT22;67019;51.034;3.728;2023-02-28T14:37:57;5.70;40.00
77829;DHT22;67019;51.034;3.728;2023-02-28T14:40:33;5.50;40.10
77829;DHT22;67019;51.034;3.728;2023-02-28T14:43:04;5.60;40.10
77829;DHT22;67019;51.034;3.728;2023-02-28T14:45:34;5.70;40.70
77829;DHT22;67019;51.034;3.728;2023-02-28T14:48:05;5.60;40.10
77829;DHT22;67019;51.034;3.728;2023-02-28T14:50:36;5.50;39.80
77829;DHT22;67019;51.034;3.728;2023-02-28T14:53:06;5.50;39.90
77829;DHT22;67019;51.034;3.728;2023-02-28T14:55:35;5.40;40.70
77829;DHT22;67019;51.034;3.728;2023-02-28T14:58:05;5.60;40.50
77829;DHT22;67019;51.034;3.728;2023-02-28T15:00:49;5.60;40.10
77829;DHT22;67019;51.034;3.728;2023-02-28T15:06:11;5.60;41.00
77829;DHT22;67019;51.034;3.728;2023-02-28T15:08:36;5.50;40.90
77829;DHT22;67019;51.034;3.728;2023-02-28T15:11:11;5.40;41.20
77829;DHT22;67019;51.034;3.728;2023-02-28T15:13:49;5.20;41.30
77829;DHT22;67019;51.034;3.728;2023-02-28T15:16:41;5.30;41.40
77829;DHT22;67019;51.034;3.728;2023-02-28T15:18:49;5.30;41.80
77829;DHT22;67019;51.034;3.728;2023-02-28T15:21:21;5.30;41.80
77829;DHT22;67019;51.034;3.728;2023-02-28T15:23:59;5.40;41.50
77829;DHT22;67019;51.034;3.728;2023-02-28T15:26:32;5.50;42.40
77829;DHT22;67019;51.034;3.728;2023-02-28T15:29:06;5.40;42.10
77829;DHT22;67019;51.034;3.728;2023-02-28T15:31:40;5.30;42.20
77829;DHT22;67019;51.034;3.728;2023-02-28T15:34:12;5.30;42.60
77829;DHT22;67019;51.034;3.728;2023-02-28T15:36:41;5.50;42.80
77829;DHT22;67019;51.034;3.728;2023-02-28T15:39:26;5.40;43.20
77829;DHT22;67019;51.034;3.728;2023-02-28T15:42:20;5.50;42.50
77829;DHT22;67019;51.034;3.728;2023-02-28T15:44:49;5.40;42.70
77829;DHT22;67019;51.034;3.728;2023-02-28T15:47:27;5.40;43.20
77829;DHT22;67019;51.034;3.728;2023-02-28T15:50:02;5.40;43.10
77829;DHT22;67019;51.034;3.728;2023-02-28T15:52:29;5.30;43.20
77829;DHT22;67019;51.034;3.728;2023-02-28T15:54:58;5.20;43.70
77829;DHT22;67019;51.034;3.728;2023-02-28T15:57:28;5.70;42.20
77829;DHT22;67019;51.034;3.728;2023-02-28T16:00:00;6.30;41.90
77829;DHT22;67019;51.034;3.728;2023-02-28T16:02:37;6.00;42.40
77829;DHT22;67019;51.034;3.728;2023-02-28T16:07:41;5.90;42.30
77829;DHT22;67019;51.034;3.728;2023-02-28T16:10:12;6.50;41.30
77829;DHT22;67019;51.034;3.728;2023-02-28T16:12:42;7.10;40.00
77829;DHT22;67019;51.034;3.728;2023-02-28T16:15:18;7.60;39.80
77829;DHT22;67019;51.034;3.728;2023-02-28T16:17:46;6.70;40.10
77829;DHT22;67019;51.034;3.728;2023-02-28T16:20:18;6.10;41.30
77829;DHT22;67019;51.034;3.728;2023-02-28T16:22:44;6.00;42.50
77829;DHT22;67019;51.034;3.728;2023-02-28T16:25:14;6.40;42.20
77829;DHT22;67019;51.034;3.728;2023-02-28T16:27:42;6.50;42.00
77829;DHT22;67019;51.034;3.728;2023-02-28T16:30:23;6.70;41.20
77829;DHT22;67019;51.034;3.728;2023-02-28T16:32:51;6.30;42.50
77829;DHT22;67019;51.034;3.728;2023-02-28T16:35:20;6.50;41.90
77829;DHT22;67019;51.034;3.728;2023-02-28T16:37:48;6.10;43.00
77829;DHT22;67019;51.034;3.728;2023-02-28T16:40:17;5.80;43.60
77829;DHT22;67019;51.034;3.728;2023-02-28T16:42:48;5.60;44.30
77829;DHT22;67019;51.034;3.728;2023-02-28T16:45:17;6.50;45.30
77829;DHT22;67019;51.034;3.728;2023-02-28T16:47:46;5.40;45.40
77829;DHT22;67019;51.034;3.728;2023-02-28T16:50:17;5.30;45.60
77829;DHT22;67019;51.034;3.728;2023-02-28T16:52:47;5.30;45.60
77829;DHT22;67019;51.034;3.728;2023-02-28T16:55:16;5.30;45.50
77829;DHT22;67019;51.034;3.728;2023-02-28T16:57:45;5.50;45.10
77829;DHT22;67019;51.034;3.728;2023-02-28T17:00:14;5.70;44.50
77829;DHT22;67019;51.034;3.728;2023-02-28T17:02:41;5.80;44.70
77829;DHT22;67019;51.034;3.728;2023-02-28T17:05:11;5.50;45.40
77829;DHT22;67019;51.034;3.728;2023-02-28T17:07:39;5.20;46.30
77829;DHT22;67019;51.034;3.728;2023-02-28T17:10:16;5.30;46.40
77829;DHT22;67019;51.034;3.728;2023-02-28T17:12:44;5.00;46.70
77829;DHT22;67019;51.034;3.728;2023-02-28T17:15:14;4.90;47.80
77829;DHT22;67019;51.034;3.728;2023-02-28T17:17:42;4.90;48.20
77829;DHT22;67019;51.034;3.728;2023-02-28T17:20:18;4.80;48.50
77829;DHT22;67019;51.034;3.728;2023-02-28T17:22:49;4.70;48.60
77829;DHT22;67019;51.034;3.728;2023-02-28T17:25:19;4.40;50.70
77829;DHT22;67019;51.034;3.728;2023-02-28T17:27:49;4.40;50.00
77829;DHT22;67019;51.034;3.728;2023-02-28T17:30:20;4.30;50.30
77829;DHT22;67019;51.034;3.728;2023-02-28T17:32:47;4.30;50.50
77829;DHT22;67019;51.034;3.728;2023-02-28T17:35:15;4.40;50.60
77829;DHT22;67019;51.034;3.728;2023-02-28T17:37:43;4.30;50.50
77829;DHT22;67019;51.034;3.728;2023-02-28T17:40:13;4.20;51.30
77829;DHT22;67019;51.034;3.728;2023-02-28T17:42:42;4.20;51.50
77829;DHT22;67019;51.034;3.728;2023-02-28T17:45:11;3.90;51.90
77829;DHT22;67019;51.034;3.728;2023-02-28T17:47:39;3.90;52.20
77829;DHT22;67019;51.034;3.728;2023-02-28T17:50:16;4.00;52.00
77829;DHT22;67019;51.034;3.728;2023-02-28T17:52:38;3.90;52.40
77829;DHT22;67019;51.034;3.728;2023-02-28T17:55:06;4.00;52.00
77829;DHT22;67019;51.034;3.728;2023-02-28T17:57:34;4.00;52.90
77829;DHT22;67019;51.034;3.728;2023-02-28T18:00:02;3.90;53.00
77829;DHT22;67019;51.034;3.728;2023-02-28T18:02:33;3.80;53.80
77829;DHT22;67019;51.034;3.728;2023-02-28T18:05:00;3.80;53.10
77829;DHT22;67019;51.034;3.728;2023-02-28T18:07:30;3.70;54.00
77829;DHT22;67019;51.034;3.728;2023-02-28T18:10:04;3.80;52.90
77829;DHT22;67019;51.034;3.728;2023-02-28T18:12:31;5.80;54.70
77829;DHT22;67019;51.034;3.728;2023-02-28T18:14:59;4.00;53.60